createdAt,value
2022-12-08T00:02:51.599Z,100210.66
2022-12-08T00:06:13.202Z,100215.00
2022-12-08T00:09:39.774Z,100210.41
2022-12-08T00:12:42.481Z,100209.06
2022-12-08T00:15:44.968Z,100212.94
2022-12-08T00:18:47.657Z,100210.59
2022-12-08T00:21:50.984Z,100214.13
2022-12-08T00:24:55.518Z,100219.91
2022-12-08T00:27:58.247Z,100210.66
2022-12-08T00:31:08.497Z,100207.03
2022-12-08T00:34:12.459Z,100212.66
2022-12-08T00:37:14.920Z,100212.09
2022-12-08T00:40:17.134Z,100222.81
2022-12-08T00:43:19.572Z,100221.59
2022-12-08T00:46:22.163Z,100224.34
2022-12-08T00:49:25.087Z,100219.66
2022-12-08T00:52:27.487Z,100220.06
2022-12-08T00:55:31.528Z,100220.88
2022-12-08T00:58:35.337Z,100215.38
2022-12-08T01:01:39.673Z,100212.97
2022-12-08T01:04:42.354Z,100210.88
2022-12-08T01:07:45.126Z,100211.13
2022-12-08T01:10:47.438Z,100210.78
2022-12-08T01:13:50.155Z,100216.75
2022-12-08T01:16:53.962Z,100208.12
2022-12-08T01:20:00.336Z,100207.94
2022-12-08T01:23:02.550Z,100207.13
2022-12-08T01:26:06.873Z,100213.41
2022-12-08T01:29:09.907Z,100211.47
2022-12-08T01:32:12.485Z,100208.25
2022-12-08T01:35:14.942Z,100219.87
2022-12-08T01:38:17.776Z,100217.44
2022-12-08T01:41:29.576Z,100212.28
2022-12-08T01:44:32.629Z,100213.31
2022-12-08T01:47:40.648Z,100213.22
2022-12-08T01:50:44.220Z,100201.25
2022-12-08T01:53:48.293Z,100203.00
2022-12-08T01:56:55.957Z,100202.22
2022-12-08T02:00:05.767Z,100201.34
2022-12-08T02:03:36.955Z,100196.03
2022-12-08T02:06:43.329Z,100188.69
2022-12-08T02:09:47.922Z,100185.16
2022-12-08T02:12:53.026Z,100184.59
2022-12-08T02:16:32.036Z,100182.09
2022-12-08T02:20:19.718Z,100178.00
2022-12-08T02:23:33.542Z,100177.81
2022-12-08T02:26:56.633Z,100185.28
2022-12-08T02:30:07.023Z,100183.69
2022-12-08T02:33:33.093Z,100175.50
2022-12-08T02:37:10.321Z,100178.22
2022-12-08T02:40:41.722Z,100183.44
2022-12-08T02:43:47.548Z,100167.75
2022-12-08T02:46:59.276Z,100163.88
2022-12-08T02:50:04.342Z,100160.16
2022-12-08T02:56:28.581Z,100164.38
2022-12-08T02:59:39.988Z,100160.97
2022-12-08T03:02:45.372Z,100163.31
2022-12-08T03:06:09.573Z,100168.16
2022-12-08T03:09:39.180Z,100162.81
2022-12-08T03:13:12.443Z,100161.78
2022-12-08T03:16:19.895Z,100164.94
2022-12-08T03:19:26.858Z,100161.16
2022-12-08T03:22:29.270Z,100160.25
2022-12-08T03:25:37.981Z,100158.09
2022-12-08T03:28:41.813Z,100159.47
2022-12-08T03:31:52.154Z,100158.66
2022-12-08T03:34:57.412Z,100155.91
2022-12-08T03:38:07.098Z,100167.59
2022-12-08T03:41:19.798Z,100149.47
2022-12-08T03:44:22.330Z,100157.59
2022-12-08T03:47:24.638Z,100153.47
2022-12-08T03:50:27.406Z,100158.31
2022-12-08T03:53:29.764Z,100150.41
2022-12-08T03:56:35.481Z,100148.22
2022-12-08T03:59:39.066Z,100145.09
2022-12-08T04:02:43.213Z,100145.56
2022-12-08T04:05:48.162Z,100144.84
2022-12-08T04:08:50.858Z,100140.22
2022-12-08T04:11:53.461Z,100140.53
2022-12-08T04:14:57.515Z,100137.62
2022-12-08T04:18:03.829Z,100129.09
2022-12-08T04:21:06.401Z,100128.16
2022-12-08T04:24:10.480Z,100124.28
2022-12-08T04:27:12.649Z,100123.03
2022-12-08T04:30:15.060Z,100125.03
2022-12-08T04:33:17.685Z,100115.47
2022-12-08T04:36:22.517Z,100124.19
2022-12-08T04:39:24.918Z,100124.78
2022-12-08T04:42:27.689Z,100129.28
2022-12-08T04:45:30.918Z,100130.56
2022-12-08T04:48:34.363Z,100131.56
2022-12-08T04:51:37.027Z,100124.63
2022-12-08T04:54:39.477Z,100130.53
2022-12-08T04:57:41.698Z,100126.25
2022-12-08T05:00:44.548Z,100125.44
2022-12-08T05:03:46.762Z,100124.16
2022-12-08T05:06:49.222Z,100129.34
2022-12-08T05:09:51.384Z,100127.81
2022-12-08T05:12:53.881Z,100130.47
2022-12-08T05:16:09.486Z,100125.63
2022-12-08T05:19:15.735Z,100132.53
2022-12-08T05:22:18.270Z,100134.47
2022-12-08T05:25:20.877Z,100132.13
2022-12-08T05:31:46.003Z,100127.44
2022-12-08T05:34:48.214Z,100121.00
2022-12-08T05:37:50.769Z,100117.66
2022-12-08T05:40:52.876Z,100112.38
2022-12-08T05:43:55.386Z,100092.41
2022-12-08T05:46:59.378Z,100098.84
2022-12-08T05:50:03.592Z,100095.56
2022-12-08T05:53:06.509Z,100097.72
2022-12-08T05:56:09.201Z,100114.25
2022-12-08T05:59:11.584Z,100110.34
2022-12-08T06:02:14.131Z,100117.63
2022-12-08T06:05:16.809Z,100107.31
2022-12-08T06:08:19.089Z,100115.03
2022-12-08T06:11:29.546Z,100116.94
2022-12-08T06:14:33.861Z,100118.03
2022-12-08T06:17:37.640Z,100126.16
2022-12-08T06:20:39.898Z,100129.41
2022-12-08T06:23:42.741Z,100127.22
2022-12-08T06:26:45.893Z,100128.53
2022-12-08T06:29:48.401Z,100125.88
2022-12-08T06:32:50.629Z,100119.28
2022-12-08T06:35:53.417Z,100127.66
2022-12-08T06:38:56.189Z,100137.56
2022-12-08T06:42:17.579Z,100137.06
2022-12-08T06:45:19.898Z,100139.44
2022-12-08T06:48:22.346Z,100138.38
2022-12-08T06:51:24.593Z,100131.81
2022-12-08T06:54:27.434Z,100143.84
2022-12-08T06:57:29.722Z,100139.59
2022-12-08T07:00:32.369Z,100138.34
2022-12-08T07:03:35.918Z,100142.66
2022-12-08T07:06:38.600Z,100140.84
2022-12-08T07:09:40.690Z,100139.84
2022-12-08T07:12:43.124Z,100140.44
2022-12-08T07:15:45.289Z,100146.69
2022-12-08T07:18:48.038Z,100140.03
2022-12-08T07:21:50.311Z,100145.69
2022-12-08T07:24:52.723Z,100134.25
2022-12-08T07:27:54.909Z,100131.13
2022-12-08T07:30:57.502Z,100127.94
2022-12-08T07:33:59.742Z,100130.84
2022-12-08T07:37:02.457Z,100127.56
2022-12-08T07:40:09.244Z,100127.91
2022-12-08T07:43:11.598Z,100131.25
2022-12-08T07:46:16.320Z,100131.87
2022-12-08T07:49:18.775Z,100127.84
2022-12-08T07:52:20.886Z,100128.09
2022-12-08T07:55:23.279Z,100117.56
2022-12-08T07:58:25.914Z,100124.00
2022-12-08T08:01:31.976Z,100125.13
2022-12-08T08:04:34.524Z,100125.66
2022-12-08T08:07:37.263Z,100133.72
2022-12-08T08:10:39.699Z,100138.03
2022-12-08T08:13:41.898Z,100127.38
2022-12-08T08:16:46.870Z,100129.63
2022-12-08T08:19:49.142Z,100123.22
2022-12-08T08:22:52.435Z,100126.69
2022-12-08T08:25:54.890Z,100122.22
2022-12-08T08:28:57.571Z,100117.97
2022-12-08T08:31:59.764Z,100113.19
2022-12-08T08:35:02.319Z,100112.16
2022-12-08T08:38:04.487Z,100112.72
2022-12-08T08:41:09.202Z,100124.22
2022-12-08T08:44:13.879Z,100123.16
2022-12-08T08:47:16.407Z,100115.16
2022-12-08T08:50:18.984Z,100109.25
2022-12-08T08:53:21.772Z,100118.63
2022-12-08T08:56:24.247Z,100124.47
2022-12-08T08:59:29.343Z,100116.47
2022-12-08T09:02:31.564Z,100103.88
2022-12-08T09:05:34.304Z,100106.81
2022-12-08T09:08:37.573Z,100109.47
2022-12-08T09:11:43.245Z,100115.88
2022-12-08T09:14:46.033Z,100116.66
2022-12-08T09:17:48.634Z,100109.72
2022-12-08T09:20:50.844Z,100088.31
2022-12-08T09:23:55.561Z,100088.03
2022-12-08T09:26:57.712Z,100099.53
2022-12-08T09:30:00.339Z,100109.66
2022-12-08T09:33:02.498Z,100105.69
2022-12-08T09:36:05.330Z,100100.31
2022-12-08T09:39:09.103Z,100092.31
2022-12-08T09:42:11.797Z,100096.62
2022-12-08T09:45:16.460Z,100082.41
2022-12-08T09:48:23.617Z,100069.81
2022-12-08T09:51:31.410Z,100066.31
2022-12-08T09:54:35.757Z,100063.87
2022-12-08T09:57:38.011Z,100058.50
2022-12-08T10:00:40.420Z,100061.37
2022-12-08T10:03:43.282Z,100056.59
2022-12-08T10:06:59.210Z,100053.34
2022-12-08T10:10:11.600Z,100057.31
2022-12-08T10:13:16.543Z,100062.69
2022-12-08T10:16:29.846Z,100068.56
2022-12-08T10:19:34.401Z,100064.78
2022-12-08T10:22:42.866Z,100063.16
2022-12-08T10:25:54.372Z,100058.94
2022-12-08T10:29:02.618Z,100053.78
2022-12-08T10:32:22.987Z,100052.62
2022-12-08T10:35:42.088Z,100041.97
2022-12-08T10:38:44.351Z,100030.69
2022-12-08T10:41:46.769Z,100026.38
2022-12-08T10:44:56.031Z,100011.09
2022-12-08T10:48:23.827Z,100018.59
2022-12-08T10:51:30.401Z,100014.06
2022-12-08T10:54:37.210Z,100001.47
2022-12-08T10:57:42.155Z,99993.19
2022-12-08T11:00:44.829Z,99992.31
2022-12-08T11:03:52.640Z,99984.47
2022-12-08T11:06:55.109Z,99976.66
2022-12-08T11:09:58.303Z,99980.94
2022-12-08T11:13:27.317Z,99972.91
2022-12-08T11:16:29.612Z,99970.72
2022-12-08T11:19:37.949Z,99959.69
2022-12-08T11:22:42.336Z,99955.75
2022-12-08T11:25:45.121Z,99953.91
2022-12-08T11:28:47.480Z,99945.88
2022-12-08T11:31:57.644Z,99934.94
2022-12-08T11:35:06.434Z,99921.31
2022-12-08T11:38:21.490Z,99906.16
2022-12-08T11:41:29.977Z,99901.59
2022-12-08T11:44:58.736Z,99896.19
2022-12-08T11:48:04.262Z,99894.87
2022-12-08T11:51:18.468Z,99897.00
2022-12-08T11:54:42.749Z,99899.34
2022-12-08T11:57:45.668Z,99896.00
2022-12-08T12:00:48.917Z,99882.59
2022-12-08T12:04:24.697Z,99886.59
2022-12-08T12:07:42.477Z,99890.03
2022-12-08T12:10:54.763Z,99888.22
2022-12-08T12:14:21.359Z,99881.69
2022-12-08T12:17:31.225Z,99887.16
2022-12-08T12:20:39.581Z,99892.75
2022-12-08T12:23:54.813Z,99889.66
2022-12-08T12:27:15.682Z,99884.59
2022-12-08T12:30:23.404Z,99891.69
2022-12-08T12:33:26.593Z,99887.63
2022-12-08T12:36:29.474Z,99889.00
2022-12-08T12:39:45.655Z,99897.13
2022-12-08T12:43:10.723Z,99891.78
2022-12-08T12:46:41.228Z,99895.34
2022-12-08T12:49:45.717Z,99891.25
2022-12-08T12:52:48.584Z,99883.06
2022-12-08T12:56:02.352Z,99867.19
2022-12-08T12:59:36.274Z,99858.28
2022-12-08T13:02:43.891Z,99862.03
2022-12-08T13:05:51.306Z,99861.88
2022-12-08T13:08:56.208Z,99865.09
2022-12-08T13:12:02.314Z,99862.41
2022-12-08T13:15:07.141Z,99864.47
2022-12-08T13:18:39.515Z,99852.72
2022-12-08T13:21:42.354Z,99840.41
2022-12-08T13:24:45.174Z,99835.88
2022-12-08T13:27:55.155Z,99844.41
2022-12-08T13:31:02.083Z,99848.44
2022-12-08T13:34:06.839Z,99833.13
2022-12-08T13:37:20.771Z,99853.47
2022-12-08T13:40:27.366Z,99853.44
2022-12-08T13:44:02.175Z,99849.44
2022-12-08T13:53:10.330Z,99847.50
2022-12-08T13:57:37.531Z,99840.00
2022-12-08T14:00:40.203Z,99843.44
2022-12-08T14:04:30.922Z,99835.44
2022-12-08T14:07:19.849Z,99835.31
2022-12-08T14:10:27.746Z,99833.97
2022-12-08T14:13:34.204Z,99837.28
2022-12-08T14:16:40.204Z,99824.38
2022-12-08T14:19:45.177Z,99828.63
2022-12-08T14:22:48.607Z,99834.31
2022-12-08T14:25:50.941Z,99837.59
2022-12-08T14:28:53.707Z,99842.53
2022-12-08T14:31:56.050Z,99848.87
2022-12-08T14:35:07.817Z,99848.41
2022-12-08T14:38:14.336Z,99852.16
2022-12-08T14:41:16.789Z,99846.78
2022-12-08T14:44:24.444Z,99843.03
2022-12-08T14:47:34.641Z,99839.06
2022-12-08T14:50:40.334Z,99841.91
2022-12-08T14:53:59.970Z,99856.44
2022-12-08T14:57:03.195Z,99846.38
2022-12-08T15:00:18.657Z,99845.81
2022-12-08T15:03:23.261Z,99843.91
2022-12-08T15:06:25.743Z,99837.69
2022-12-08T15:09:38.905Z,99827.59
2022-12-08T15:13:01.230Z,99831.75
2022-12-08T15:16:43.700Z,99825.94
2022-12-08T15:19:58.738Z,99827.13
2022-12-08T15:23:01.016Z,99834.66
2022-12-08T15:26:05.104Z,99832.56
2022-12-08T15:29:20.736Z,99837.91
2022-12-08T15:32:23.898Z,99834.75
2022-12-08T15:35:26.217Z,99819.09
2022-12-08T15:38:29.430Z,99825.72
2022-12-08T15:41:31.625Z,99822.28
2022-12-08T15:44:34.114Z,99822.47
2022-12-08T15:47:36.318Z,99819.75
2022-12-08T15:50:38.803Z,99808.47
2022-12-08T15:53:42.351Z,99799.69
2022-12-08T15:57:17.882Z,99798.34
2022-12-08T16:00:51.012Z,99804.53
2022-12-08T16:04:36.799Z,99811.97
2022-12-08T16:07:29.392Z,99812.78
2022-12-08T16:10:51.614Z,99827.34
2022-12-08T16:13:59.555Z,99827.56
2022-12-08T16:17:18.081Z,99820.63
2022-12-08T16:20:24.435Z,99818.66
2022-12-08T16:23:43.739Z,99818.37
2022-12-08T16:30:17.192Z,99789.44
2022-12-08T16:33:19.955Z,99792.91
2022-12-08T16:36:22.374Z,99786.44
2022-12-08T16:39:24.851Z,99786.97
2022-12-08T16:42:45.817Z,99793.69
2022-12-08T16:45:50.402Z,99803.56
2022-12-08T16:48:52.843Z,99806.56
2022-12-08T16:51:55.086Z,99807.31
2022-12-08T16:54:57.653Z,99807.81
2022-12-08T16:57:59.996Z,99803.03
2022-12-08T17:01:03.146Z,99814.53
2022-12-08T17:07:28.235Z,99806.25
2022-12-08T17:10:32.095Z,99806.03
2022-12-08T17:13:36.709Z,99799.66
2022-12-08T17:16:39.409Z,99804.22
2022-12-08T17:19:42.035Z,99801.53
2022-12-08T17:22:44.754Z,99812.72
2022-12-08T17:26:03.773Z,99826.16
2022-12-08T17:29:06.246Z,99835.50
2022-12-08T17:32:08.738Z,99836.09
2022-12-08T17:35:11.246Z,99818.09
2022-12-08T17:38:15.822Z,99798.22
2022-12-08T17:41:17.930Z,99791.53
2022-12-08T17:44:20.546Z,99794.47
2022-12-08T17:47:22.787Z,99793.44
2022-12-08T17:50:30.567Z,99794.19
2022-12-08T17:53:37.176Z,99792.59
2022-12-08T17:56:40.051Z,99786.44
2022-12-08T17:59:42.171Z,99788.88
2022-12-08T18:02:44.676Z,99791.78
2022-12-08T18:05:50.980Z,99792.00
2022-12-08T18:08:53.115Z,99786.63
2022-12-08T18:11:56.013Z,99781.56
2022-12-08T18:14:59.614Z,99791.75
2022-12-08T18:18:02.294Z,99784.31
2022-12-08T18:21:04.614Z,99793.69
2022-12-08T18:24:07.995Z,99794.34
2022-12-08T18:27:10.281Z,99790.59
2022-12-08T18:30:16.566Z,99797.31
2022-12-08T18:33:19.399Z,99801.22
2022-12-08T18:36:24.783Z,99801.00
2022-12-08T18:39:30.710Z,99803.44
2022-12-08T18:42:33.265Z,99801.47
2022-12-08T18:45:38.691Z,99797.16
2022-12-08T18:48:46.521Z,99804.94
2022-12-08T18:51:48.988Z,99802.59
2022-12-08T18:55:05.810Z,99808.00
2022-12-08T18:58:10.888Z,99789.50
2022-12-08T19:01:16.050Z,99792.12
2022-12-08T19:04:28.283Z,99799.69
2022-12-08T19:07:31.843Z,99797.00
2022-12-08T19:10:38.147Z,99793.94
2022-12-08T19:13:40.855Z,99788.63
2022-12-08T19:16:43.210Z,99786.22
2022-12-08T19:19:45.690Z,99790.59
2022-12-08T19:22:50.153Z,99793.25
2022-12-08T19:25:52.582Z,99800.47
2022-12-08T19:28:55.584Z,99800.16
2022-12-08T19:31:58.862Z,99807.22
2022-12-08T19:35:01.112Z,99796.00
2022-12-08T19:38:03.668Z,99801.00
2022-12-08T19:41:24.443Z,99801.84
2022-12-08T19:44:28.789Z,99804.53
2022-12-08T19:47:33.464Z,99803.44
2022-12-08T19:50:36.238Z,99805.56
2022-12-08T19:53:41.811Z,99802.41
2022-12-08T19:56:47.137Z,99792.28
2022-12-08T19:59:54.573Z,99793.63
2022-12-08T20:03:00.270Z,99788.81
2022-12-08T20:06:02.845Z,99788.50
2022-12-08T20:09:05.401Z,99789.38
2022-12-08T20:12:08.145Z,99796.38
2022-12-08T20:15:11.102Z,99788.81
2022-12-08T20:18:15.589Z,99775.62
2022-12-08T20:21:17.890Z,99773.41
2022-12-08T20:24:20.292Z,99773.50
2022-12-08T20:27:23.656Z,99773.28
2022-12-08T20:30:26.375Z,99772.84
2022-12-08T20:33:28.719Z,99768.53
2022-12-08T20:36:31.490Z,99775.22
2022-12-08T20:39:33.899Z,99774.72
2022-12-08T20:42:36.347Z,99771.56
2022-12-08T20:45:38.885Z,99779.87
2022-12-08T20:48:42.931Z,99780.63
2022-12-08T20:51:45.293Z,99790.00
2022-12-08T20:54:48.049Z,99794.03
2022-12-08T20:57:50.361Z,99792.63
2022-12-08T21:00:53.144Z,99798.03
2022-12-08T21:03:55.561Z,99797.28
2022-12-08T21:06:58.725Z,99804.72
2022-12-08T21:10:01.716Z,99798.56
2022-12-08T21:13:05.492Z,99794.81
2022-12-08T21:16:13.277Z,99795.06
2022-12-08T21:19:16.089Z,99800.66
2022-12-08T21:22:18.437Z,99803.13
2022-12-08T21:25:21.384Z,99792.69
2022-12-08T21:28:23.783Z,99788.69
2022-12-08T21:31:27.024Z,99791.34
2022-12-08T21:34:34.177Z,99779.59
2022-12-08T21:37:39.714Z,99769.22
2022-12-08T21:40:43.251Z,99767.84
2022-12-08T21:43:45.961Z,99769.41
2022-12-08T21:46:48.320Z,99773.72
2022-12-08T21:49:51.143Z,99774.50
2022-12-08T21:52:53.536Z,99776.97
2022-12-08T21:55:56.352Z,99781.78
2022-12-08T21:58:58.682Z,99784.75
2022-12-08T22:02:01.675Z,99772.19
2022-12-08T22:05:05.005Z,99771.91
2022-12-08T22:08:08.681Z,99769.53
2022-12-08T22:11:12.120Z,99784.47
2022-12-08T22:14:15.362Z,99785.47
2022-12-08T22:17:18.710Z,99779.41
2022-12-08T22:20:21.316Z,99771.91
2022-12-08T22:23:23.984Z,99770.31
2022-12-08T22:26:26.410Z,99765.78
2022-12-08T22:29:30.054Z,99779.69
2022-12-08T22:32:32.585Z,99779.69
2022-12-08T22:35:35.393Z,99789.28
2022-12-08T22:38:37.515Z,99786.06
2022-12-08T22:41:40.155Z,99790.13
2022-12-08T22:44:42.288Z,99770.66
2022-12-08T22:47:44.915Z,99771.72
2022-12-08T22:50:47.017Z,99780.78
2022-12-08T22:53:50.148Z,99785.03
2022-12-08T22:56:52.367Z,99788.56
2022-12-08T22:59:56.819Z,99777.69
2022-12-08T23:02:59.066Z,99778.72
2022-12-08T23:06:01.810Z,99775.47
2022-12-08T23:09:06.511Z,99782.19
2022-12-08T23:12:09.096Z,99775.56
2022-12-08T23:15:11.528Z,99782.44
2022-12-08T23:18:16.766Z,99780.03
2022-12-08T23:21:20.367Z,99788.81
2022-12-08T23:24:22.804Z,99778.94
2022-12-08T23:27:25.001Z,99780.56
2022-12-08T23:30:28.947Z,99774.41
2022-12-08T23:33:31.614Z,99775.47
2022-12-08T23:36:34.100Z,99781.63
2022-12-08T23:39:36.576Z,99775.47
2022-12-08T23:42:39.364Z,99782.94
2022-12-08T23:45:41.728Z,99773.59
2022-12-08T23:48:44.695Z,99764.78
2022-12-08T23:51:47.096Z,99757.59
2022-12-08T23:54:50.398Z,99766.38
2022-12-08T23:57:52.898Z,99764.50
